Time;durP1;ratioP1;P1;durP2;ratioP2;P2;SDS_P1;SDS_P2;PMS_P1;PMS_P2;Temp;Humidity;BMP_temperature;BMP_pressure;BME280_temperature;BME280_humidity;BME280_pressure;Samples;Min_cycle;Max_cycle;Signal;HPM_P1;HPM_P2
2021/08/26 00:00:59;;;;;;;7.85;7.15;;;19.70;66.00;;;;;;4964112;28;20202;-85
2021/08/26 00:06:16;;;;;;;9.40;7.90;;;19.50;66.70;;;;;;4967617;28;20465;-84
2021/08/26 00:08:42;;;;;;;8.48;7.68;;;19.60;66.50;;;;;;4967220;28;20232;-86
2021/08/26 00:11:07;;;;;;;8.25;7.50;;;19.70;66.10;;;;;;4960484;28;20219;-85
2021/08/26 00:13:34;;;;;;;9.30;8.07;;;19.60;65.50;;;;;;4954284;28;20218;-85
2021/08/26 00:16:00;;;;;;;7.85;7.15;;;19.60;65.30;;;;;;4955453;28;20207;-84
2021/08/26 00:18:26;;;;;;;8.30;7.43;;;19.50;66.20;;;;;;4963677;28;20192;-85
2021/08/26 00:20:53;;;;;;;8.27;7.47;;;19.50;66.70;;;;;;4971223;28;20227;-85
2021/08/26 00:23:23;;;;;;;7.63;6.93;;;19.50;66.40;;;;;;4957569;28;20195;-85
2021/08/26 00:25:50;;;;;;;8.30;7.20;;;19.40;66.70;;;;;;4965718;28;20199;-84
2021/08/26 00:28:17;;;;;;;8.27;7.47;;;19.50;66.00;;;;;;4957307;28;20694;-85
2021/08/26 00:30:43;;;;;;;7.45;6.70;;;19.50;66.00;;;;;;4955426;28;20556;-84
2021/08/26 00:33:09;;;;;;;8.70;7.13;;;19.50;66.00;;;;;;4954181;28;20207;-85
2021/08/26 00:35:34;;;;;;;7.45;6.47;;;19.50;65.90;;;;;;4960230;28;20273;-84
2021/08/26 00:38:00;;;;;;;7.38;6.68;;;19.40;66.00;;;;;;4957649;28;20200;-84
2021/08/26 00:40:26;;;;;;;8.63;7.80;;;19.40;66.40;;;;;;4954269;28;20195;-84
2021/08/26 00:42:52;;;;;;;8.15;7.35;;;19.40;66.70;;;;;;4940272;29;20255;-84
2021/08/26 00:45:17;;;;;;;7.75;6.90;;;19.30;67.60;;;;;;4966311;28;20815;-84
2021/08/26 00:47:46;;;;;;;8.35;7.25;;;19.30;67.40;;;;;;4950277;28;20615;-85
2021/08/26 00:50:16;;;;;;;7.30;6.60;;;19.30;66.70;;;;;;4954970;28;20219;-85
2021/08/26 00:52:42;;;;;;;8.13;7.22;;;19.20;66.50;;;;;;4952977;29;20246;-85
2021/08/26 00:55:09;;;;;;;10.05;7.20;;;19.00;67.00;;;;;;4953118;28;20246;-84
2021/08/26 00:57:36;;;;;;;8.27;7.55;;;19.00;67.70;;;;;;4952429;28;20207;-84
2021/08/26 01:00:11;;;;;;;7.55;6.75;;;19.00;68.40;;;;;;4953488;28;20194;-85
2021/08/26 01:03:02;;;;;;;8.25;7.30;;;19.00;67.80;;;;;;4954094;28;20210;-84
2021/08/26 01:05:38;;;;;;;8.70;7.45;;;19.00;67.50;;;;;;4953507;28;20226;-85
2021/08/26 01:08:08;;;;;;;9.55;7.63;;;19.00;67.30;;;;;;4953977;29;20202;-85
2021/08/26 01:10:36;;;;;;;7.35;6.75;;;18.90;68.40;;;;;;4970718;28;20206;-84
2021/08/26 01:13:02;;;;;;;8.18;7.22;;;18.80;68.60;;;;;;4968370;28;20198;-84
2021/08/26 01:15:28;;;;;;;8.07;7.28;;;18.90;68.60;;;;;;4953668;28;20752;-85
2021/08/26 01:17:55;;;;;;;8.93;7.60;;;18.70;68.40;;;;;;4954382;28;20262;-85
2021/08/26 01:20:21;;;;;;;8.05;7.25;;;18.60;68.00;;;;;;4958977;28;20190;-84
2021/08/26 01:22:47;;;;;;;7.90;7.10;;;18.50;69.80;;;;;;4960841;28;20682;-85
2021/08/26 01:25:21;;;;;;;8.52;7.72;;;18.50;70.20;;;;;;4954732;28;20222;-84
2021/08/26 01:27:55;;;;;;;7.95;7.22;;;18.50;70.10;;;;;;4944814;29;20225;-84
2021/08/26 01:30:24;;;;;;;8.43;7.45;;;18.60;69.20;;;;;;4945980;28;20289;-84
2021/08/26 01:32:55;;;;;;;8.70;7.90;;;18.40;69.60;;;;;;4942161;29;20194;-84
2021/08/26 01:35:22;;;;;;;10.10;7.50;;;18.40;69.90;;;;;;4951859;28;20226;-84
2021/08/26 01:37:48;;;;;;;8.90;7.70;;;18.40;69.80;;;;;;4954209;28;20202;-85
2021/08/26 01:40:14;;;;;;;7.63;6.68;;;18.50;69.90;;;;;;4966314;28;20355;-84
2021/08/26 01:42:40;;;;;;;8.80;7.35;;;18.50;69.70;;;;;;4952179;29;20739;-85
2021/08/26 01:45:08;;;;;;;8.75;7.90;;;18.40;69.60;;;;;;4954246;28;20302;-84
2021/08/26 01:47:35;;;;;;;9.38;7.78;;;18.40;69.70;;;;;;4949873;28;20203;-84
2021/08/26 01:50:03;;;;;;;9.55;7.60;;;18.30;70.40;;;;;;4940826;28;20278;-85
2021/08/26 01:52:29;;;;;;;9.02;7.40;;;18.20;70.70;;;;;;4955151;28;20700;-84
2021/08/26 01:55:02;;;;;;;8.57;7.68;;;18.10;71.20;;;;;;4954937;28;20213;-85
2021/08/26 01:57:29;;;;;;;9.68;8.63;;;18.10;71.40;;;;;;4945328;28;20209;-84
2021/08/26 01:59:59;;;;;;;8.80;7.47;;;18.10;71.90;;;;;;4947688;28;20200;-85
2021/08/26 02:02:24;;;;;;;8.48;7.63;;;18.00;72.00;;;;;;4958215;28;20860;-84
2021/08/26 02:04:50;;;;;;;8.70;7.90;;;18.00;72.10;;;;;;4956093;28;20222;-84
2021/08/26 02:07:16;;;;;;;8.68;7.63;;;18.10;71.90;;;;;;4953841;28;20201;-85
2021/08/26 02:09:41;;;;;;;8.27;7.55;;;18.00;71.80;;;;;;4953737;28;20199;-84
2021/08/26 02:12:07;;;;;;;8.40;7.60;;;18.10;72.10;;;;;;4954031;28;20195;-84
2021/08/26 02:14:33;;;;;;;8.60;7.72;;;18.10;72.10;;;;;;4955625;28;20281;-84
2021/08/26 02:16:59;;;;;;;8.40;7.68;;;18.10;71.90;;;;;;4978611;28;20197;-84
2021/08/26 02:19:24;;;;;;;9.48;8.25;;;18.00;72.00;;;;;;4962709;28;20202;-85
2021/08/26 02:21:50;;;;;;;9.77;8.48;;;18.00;72.20;;;;;;4965195;28;20195;-84
2021/08/26 02:24:16;;;;;;;9.00;8.10;;;17.80;72.70;;;;;;4968324;28;20286;-85
2021/08/26 02:26:42;;;;;;;11.55;8.15;;;17.70;74.10;;;;;;4976151;28;20226;-84
2021/08/26 02:29:08;;;;;;;8.73;7.77;;;17.60;73.80;;;;;;4965014;28;20232;-85
2021/08/26 02:31:34;;;;;;;9.03;8.17;;;17.60;73.80;;;;;;4971636;28;20217;-84
2021/08/26 02:33:59;;;;;;;14.30;8.50;;;17.70;74.00;;;;;;4961725;28;20282;-84
2021/08/26 02:36:25;;;;;;;9.82;8.80;;;17.70;74.00;;;;;;4975153;28;20199;-85
2021/08/26 02:38:51;;;;;;;9.68;7.85;;;17.70;73.60;;;;;;4961476;28;20197;-84
2021/08/26 02:41:18;;;;;;;9.38;8.38;;;17.70;73.80;;;;;;4962004;28;20210;-84
2021/08/26 02:43:44;;;;;;;9.55;8.55;;;17.70;73.30;;;;;;4960703;28;20307;-84
2021/08/26 02:46:10;;;;;;;11.52;8.98;;;17.60;73.80;;;;;;4963896;28;20244;-85
2021/08/26 02:48:35;;;;;;;9.55;8.18;;;17.60;73.70;;;;;;4963581;28;20321;-84
2021/08/26 02:51:02;;;;;;;8.63;7.82;;;17.70;74.00;;;;;;4962785;28;20267;-84
2021/08/26 02:53:27;;;;;;;9.38;8.57;;;17.60;73.40;;;;;;4962593;28;20210;-84
2021/08/26 02:55:53;;;;;;;8.55;7.85;;;17.50;74.40;;;;;;4975245;28;20194;-84
2021/08/26 02:58:19;;;;;;;9.53;8.57;;;17.60;75.00;;;;;;4964765;28;20579;-84
2021/08/26 03:00:45;;;;;;;8.37;7.57;;;17.60;74.70;;;;;;4962744;28;20207;-84
2021/08/26 03:03:11;;;;;;;9.77;8.07;;;17.60;74.90;;;;;;4962698;28;20213;-84
2021/08/26 03:05:36;;;;;;;10.30;8.80;;;17.60;74.40;;;;;;4962861;28;20217;-84
2021/08/26 03:08:02;;;;;;;10.40;8.13;;;17.60;74.70;;;;;;4963064;28;20209;-84
2021/08/26 03:10:29;;;;;;;10.87;8.10;;;17.50;74.10;;;;;;4960718;28;20249;-84
2021/08/26 03:12:55;;;;;;;8.53;7.60;;;17.50;75.00;;;;;;4977217;28;20185;-84
2021/08/26 03:15:21;;;;;;;9.30;8.10;;;17.40;75.10;;;;;;4964324;28;20488;-83
2021/08/26 03:17:47;;;;;;;11.03;8.27;;;17.30;75.30;;;;;;4960870;29;20280;-84
2021/08/26 03:20:13;;;;;;;8.40;7.60;;;17.40;75.10;;;;;;4962451;29;20214;-84
2021/08/26 03:22:39;;;;;;;9.07;7.70;;;17.40;75.00;;;;;;4962239;28;20686;-84
2021/08/26 03:25:05;;;;;;;9.67;8.17;;;17.60;74.50;;;;;;4962585;28;20299;-84
2021/08/26 03:27:31;;;;;;;10.00;8.87;;;17.40;75.30;;;;;;4964466;29;20229;-84
2021/08/26 03:29:57;;;;;;;8.87;7.97;;;17.40;74.90;;;;;;4967728;29;20244;-84
2021/08/26 03:32:23;;;;;;;10.63;8.50;;;17.30;75.90;;;;;;4963236;28;21017;-84
2021/08/26 03:34:49;;;;;;;8.87;7.97;;;17.30;76.00;;;;;;4961673;28;20300;-84
2021/08/26 03:37:14;;;;;;;9.63;8.30;;;17.30;75.90;;;;;;4961964;28;20236;-85
2021/08/26 03:39:40;;;;;;;8.60;7.73;;;17.30;75.70;;;;;;4960784;28;20194;-85
2021/08/26 03:42:06;;;;;;;9.10;8.13;;;17.40;75.40;;;;;;4961972;28;20225;-85
2021/08/26 03:44:31;;;;;;;8.97;8.07;;;17.40;75.50;;;;;;4977841;28;20571;-85
2021/08/26 03:46:58;;;;;;;8.30;7.60;;;17.40;75.30;;;;;;4963312;28;20208;-85
2021/08/26 03:49:23;;;;;;;8.87;8.07;;;17.50;75.30;;;;;;4963109;28;20205;-85
2021/08/26 03:51:49;;;;;;;9.07;8.17;;;17.60;74.70;;;;;;4962285;28;20218;-85
2021/08/26 03:54:15;;;;;;;8.73;7.87;;;17.50;74.50;;;;;;4962295;28;20252;-85
2021/08/26 03:56:40;;;;;;;9.70;8.70;;;17.50;75.00;;;;;;4962748;28;20206;-84
2021/08/26 03:59:06;;;;;;;9.23;8.33;;;17.50;74.70;;;;;;4959198;29;20225;-85
2021/08/26 04:01:32;;;;;;;9.05;8.18;;;17.50;75.20;;;;;;4964273;28;20209;-85
2021/08/26 04:03:58;;;;;;;10.20;8.32;;;17.50;75.10;;;;;;4964444;28;20409;-84
2021/08/26 04:06:24;;;;;;;8.93;7.82;;;17.50;75.10;;;;;;4965198;28;20201;-85
2021/08/26 04:08:50;;;;;;;9.00;8.18;;;17.60;75.00;;;;;;4988082;28;20244;-85
2021/08/26 04:11:16;;;;;;;8.77;7.97;;;17.70;74.50;;;;;;4972725;28;20219;-84
2021/08/26 04:13:41;;;;;;;9.23;8.43;;;17.70;74.30;;;;;;4971606;28;20532;-84
2021/08/26 04:16:07;;;;;;;8.75;7.95;;;17.50;74.50;;;;;;4972083;28;20202;-84
2021/08/26 04:18:33;;;;;;;9.18;8.27;;;17.50;74.60;;;;;;4989463;28;20198;-85
2021/08/26 04:20:59;;;;;;;8.98;8.07;;;17.50;74.70;;;;;;4970386;28;20252;-84
2021/08/26 04:23:24;;;;;;;11.07;8.90;;;17.60;74.50;;;;;;4968253;28;20201;-83
2021/08/26 04:25:50;;;;;;;9.33;8.30;;;17.50;75.00;;;;;;4963419;29;20200;-83
2021/08/26 04:28:16;;;;;;;12.32;8.95;;;17.50;74.60;;;;;;4967068;28;20203;-84
2021/08/26 04:30:41;;;;;;;9.97;8.97;;;17.40;74.80;;;;;;4980554;28;20258;-84
2021/08/26 04:33:07;;;;;;;13.50;8.90;;;17.40;74.80;;;;;;4973986;28;20224;-85
2021/08/26 04:35:33;;;;;;;8.63;7.73;;;17.30;75.30;;;;;;4962545;28;20227;-85
2021/08/26 04:37:58;;;;;;;9.97;8.43;;;17.20;75.80;;;;;;4959494;29;20206;-85
2021/08/26 04:40:24;;;;;;;9.50;8.60;;;17.10;75.90;;;;;;4950677;29;20665;-85
2021/08/26 04:42:50;;;;;;;9.37;8.40;;;17.20;76.10;;;;;;4955474;28;20204;-85
2021/08/26 04:45:16;;;;;;;9.40;8.53;;;17.10;76.70;;;;;;4955304;28;20388;-85
2021/08/26 04:47:42;;;;;;;10.60;9.50;;;17.10;76.40;;;;;;4961987;28;20216;-82
2021/08/26 04:50:08;;;;;;;10.27;8.73;;;17.00;77.20;;;;;;4987060;28;20216;-84
2021/08/26 04:52:34;;;;;;;10.13;9.23;;;17.00;77.80;;;;;;4970240;28;20195;-84
2021/08/26 04:54:59;;;;;;;11.27;9.53;;;16.90;77.90;;;;;;4976054;28;20263;-85
2021/08/26 04:57:25;;;;;;;10.07;9.13;;;16.90;78.40;;;;;;4962963;28;20200;-85
2021/08/26 04:59:51;;;;;;;10.80;9.20;;;16.90;78.60;;;;;;4973601;28;20213;-85
2021/08/26 05:02:16;;;;;;;9.37;8.37;;;17.00;78.20;;;;;;4959580;29;20227;-85
2021/08/26 05:04:42;;;;;;;8.83;8.07;;;17.00;77.90;;;;;;4962650;28;20747;-86
2021/08/26 05:07:08;;;;;;;10.20;8.90;;;17.00;78.80;;;;;;4962200;28;20206;-85
2021/08/26 05:09:34;;;;;;;9.43;8.53;;;17.00;78.50;;;;;;4961319;28;20194;-85
2021/08/26 05:12:00;;;;;;;9.70;8.70;;;16.90;79.00;;;;;;4976430;28;20213;-85
2021/08/26 05:14:26;;;;;;;9.83;8.83;;;16.90;79.10;;;;;;4961722;28;20759;-85
2021/08/26 05:16:52;;;;;;;9.90;8.97;;;16.90;79.10;;;;;;4963401;28;20193;-85
2021/08/26 05:19:18;;;;;;;9.80;8.87;;;16.90;79.20;;;;;;4974938;28;20515;-84
2021/08/26 05:21:44;;;;;;;9.70;8.70;;;16.80;79.70;;;;;;4961916;28;20199;-85
2021/08/26 05:24:09;;;;;;;10.33;8.37;;;16.80;80.00;;;;;;4962867;28;20221;-85
2021/08/26 05:26:35;;;;;;;10.00;9.00;;;16.80;79.80;;;;;;4962247;29;20271;-84
2021/08/26 05:29:01;;;;;;;10.57;9.53;;;16.90;79.60;;;;;;4977898;28;20734;-86
2021/08/26 05:31:26;;;;;;;11.07;10.07;;;16.80;79.80;;;;;;4963815;28;20215;-85
2021/08/26 05:33:52;;;;;;;9.77;8.83;;;16.60;81.10;;;;;;4964117;28;20218;-86
2021/08/26 05:36:18;;;;;;;10.73;9.67;;;16.60;81.40;;;;;;4960696;29;20560;-86
2021/08/26 05:38:43;;;;;;;10.20;9.27;;;16.30;83.40;;;;;;4962803;28;20208;-85
2021/08/26 05:41:09;;;;;;;10.70;9.70;;;16.10;84.40;;;;;;4965137;28;20657;-86
2021/08/26 05:43:35;;;;;;;14.97;9.17;;;16.10;84.90;;;;;;4971351;28;20200;-86
2021/08/26 05:46:00;;;;;;;10.50;9.40;;;16.00;85.00;;;;;;4960814;28;20266;-86
2021/08/26 05:48:29;;;;;;;9.70;8.70;;;16.10;85.00;;;;;;4959050;28;20199;-85
2021/08/26 05:50:55;;;;;;;13.40;9.23;;;15.90;85.70;;;;;;4960775;28;20211;-86
2021/08/26 05:53:20;;;;;;;11.37;9.27;;;15.90;85.50;;;;;;4955029;28;20221;-86
2021/08/26 05:55:47;;;;;;;10.00;8.67;;;15.90;86.00;;;;;;4973992;28;20717;-86
2021/08/26 05:58:13;;;;;;;10.00;9.00;;;15.90;85.60;;;;;;4973697;28;20188;-86
2021/08/26 06:00:39;;;;;;;12.53;10.33;;;15.90;85.90;;;;;;4966512;28;20209;-85
2021/08/26 06:03:05;;;;;;;10.47;9.37;;;15.60;86.90;;;;;;4975434;28;20194;-86
2021/08/26 06:05:30;;;;;;;11.13;9.10;;;15.70;86.90;;;;;;4959804;28;20257;-86
2021/08/26 06:07:56;;;;;;;10.60;8.43;;;15.80;86.30;;;;;;4959408;29;20229;-86
2021/08/26 06:10:22;;;;;;;11.53;9.77;;;15.90;85.80;;;;;;4955382;28;20230;-86
2021/08/26 06:12:48;;;;;;;10.07;9.07;;;15.80;86.10;;;;;;4964281;29;20187;-86
2021/08/26 06:15:14;;;;;;;11.90;9.30;;;15.70;86.40;;;;;;4978202;28;20583;-86
2021/08/26 06:17:39;;;;;;;9.47;8.57;;;15.70;86.30;;;;;;4960007;28;20673;-86
2021/08/26 06:20:08;;;;;;;10.17;9.20;;;15.80;86.10;;;;;;4985662;28;20198;-87
2021/08/26 06:22:34;;;;;;;10.37;9.37;;;15.80;85.60;;;;;;4985859;28;20669;-86
2021/08/26 06:24:59;;;;;;;21.20;10.60;;;15.70;86.10;;;;;;4965818;28;20457;-86
2021/08/26 06:27:25;;;;;;;12.60;9.80;;;15.80;85.50;;;;;;4964609;28;20195;-86
2021/08/26 06:29:51;;;;;;;10.33;9.40;;;15.80;86.10;;;;;;4960801;28;20668;-86
2021/08/26 06:32:17;;;;;;;11.20;9.73;;;15.60;86.60;;;;;;4962227;28;20692;-86
2021/08/26 06:34:44;;;;;;;11.20;8.97;;;15.50;87.40;;;;;;4956658;28;20222;-86
2021/08/26 06:37:09;;;;;;;11.27;9.20;;;15.70;86.80;;;;;;4962322;28;20196;-86
2021/08/26 06:39:35;;;;;;;10.33;9.30;;;15.60;87.30;;;;;;4961452;28;20204;-86
2021/08/26 06:42:01;;;;;;;10.70;9.07;;;15.60;87.60;;;;;;4960615;28;20224;-86
2021/08/26 06:44:27;;;;;;;10.47;9.47;;;15.60;87.50;;;;;;4977069;28;20217;-87
2021/08/26 06:46:52;;;;;;;11.17;9.50;;;15.60;87.00;;;;;;4976645;28;20210;-86
2021/08/26 06:49:18;;;;;;;10.77;9.83;;;15.70;86.40;;;;;;4961759;29;20213;-86
2021/08/26 06:51:44;;;;;;;9.97;8.97;;;15.60;87.10;;;;;;4961745;28;20598;-86
2021/08/26 06:54:09;;;;;;;10.60;9.50;;;15.60;87.10;;;;;;4961551;28;20506;-86
2021/08/26 06:56:35;;;;;;;11.00;9.67;;;15.60;87.20;;;;;;4978637;28;20202;-86
2021/08/26 06:59:01;;;;;;;10.63;9.10;;;15.70;86.20;;;;;;4964635;28;20197;-86
2021/08/26 07:01:26;;;;;;;10.40;9.20;;;15.70;87.30;;;;;;4960341;28;20210;-87
2021/08/26 07:03:52;;;;;;;10.83;9.83;;;15.50;87.80;;;;;;4961151;28;20219;-86
2021/08/26 07:06:18;;;;;;;11.13;10.03;;;15.30;88.20;;;;;;4961191;28;20206;-86
2021/08/26 07:08:44;;;;;;;10.90;9.80;;;15.30;88.90;;;;;;4960222;28;20215;-86
2021/08/26 07:11:10;;;;;;;10.90;9.90;;;15.40;87.60;;;;;;4968100;28;20225;-87
2021/08/26 07:13:35;;;;;;;10.10;9.13;;;15.50;87.80;;;;;;4993378;28;20195;-86
2021/08/26 07:16:01;;;;;;;10.50;9.50;;;15.60;87.00;;;;;;4978217;28;20209;-87
2021/08/26 07:18:28;;;;;;;10.37;9.47;;;15.70;86.50;;;;;;4973758;28;20616;-86
2021/08/26 07:20:54;;;;;;;10.77;9.43;;;15.60;86.30;;;;;;4960826;28;20192;-86
2021/08/26 07:23:21;;;;;;;12.20;9.97;;;15.50;87.80;;;;;;4959381;28;20207;-86
2021/08/26 07:25:48;;;;;;;11.07;9.83;;;15.60;87.20;;;;;;4961729;28;20466;-86
2021/08/26 07:28:13;;;;;;;10.57;9.57;;;15.80;86.60;;;;;;4961698;28;20223;-86
2021/08/26 07:30:39;;;;;;;12.37;10.07;;;15.80;85.60;;;;;;4961223;28;20254;-86
2021/08/26 07:33:05;;;;;;;10.77;9.50;;;15.90;86.00;;;;;;4960236;28;20642;-86
2021/08/26 07:35:31;;;;;;;16.23;10.57;;;16.00;85.20;;;;;;4960018;28;20223;-86
2021/08/26 07:37:58;;;;;;;12.40;9.10;;;16.10;87.20;;;;;;4961553;29;20199;-86
2021/08/26 07:40:24;;;;;;;10.20;9.13;;;16.20;86.20;;;;;;4962302;28;20291;-86
2021/08/26 07:42:49;;;;;;;10.43;9.47;;;16.30;86.20;;;;;;4964051;28;20244;-86
2021/08/26 07:45:15;;;;;;;10.83;9.63;;;16.40;86.10;;;;;;4962791;28;20220;-87
2021/08/26 07:47:41;;;;;;;10.73;9.50;;;16.30;87.00;;;;;;4970383;28;20234;-87
2021/08/26 07:50:07;;;;;;;9.90;8.87;;;16.30;87.80;;;;;;4962037;28;20230;-86
2021/08/26 07:52:33;;;;;;;10.33;9.30;;;16.40;87.80;;;;;;4958702;28;20223;-86
2021/08/26 07:54:59;;;;;;;10.33;9.33;;;16.50;88.60;;;;;;4979947;28;20211;-86
2021/08/26 07:57:25;;;;;;;10.83;9.73;;;16.40;86.70;;;;;;4954598;28;20199;-86
2021/08/26 07:59:52;;;;;;;10.97;9.30;;;16.30;88.70;;;;;;4962374;28;20200;-87
2021/08/26 08:02:17;;;;;;;11.70;10.17;;;16.30;88.70;;;;;;4963473;28;20187;-87
2021/08/26 08:04:43;;;;;;;10.00;9.10;;;16.40;88.10;;;;;;4963502;28;20215;-87
2021/08/26 08:07:09;;;;;;;12.77;11.13;;;16.20;89.90;;;;;;4964591;29;20238;-86
2021/08/26 08:09:35;;;;;;;13.17;10.67;;;16.20;89.40;;;;;;4979655;28;20207;-87
2021/08/26 08:12:01;;;;;;;12.10;10.87;;;16.10;90.20;;;;;;4964169;28;20219;-86
2021/08/26 08:14:29;;;;;;;11.93;10.40;;;15.80;91.10;;;;;;4963692;28;20301;-86
2021/08/26 08:16:55;;;;;;;12.23;11.03;;;15.70;92.60;;;;;;4976261;28;20199;-86
2021/08/26 08:19:22;;;;;;;12.17;10.97;;;15.70;93.20;;;;;;4963119;28;20223;-87
2021/08/26 08:21:48;;;;;;;12.03;10.80;;;15.70;94.70;;;;;;4971048;28;20210;-86
2021/08/26 08:24:14;;;;;;;12.57;11.40;;;15.80;93.10;;;;;;4964244;28;20224;-86
2021/08/26 08:26:39;;;;;;;11.13;10.17;;;15.80;92.30;;;;;;4963678;28;20263;-86
2021/08/26 08:29:05;;;;;;;11.53;10.43;;;15.90;91.80;;;;;;4962409;29;20227;-86
2021/08/26 08:31:31;;;;;;;11.77;10.67;;;15.90;91.70;;;;;;4978767;28;20266;-84
2021/08/26 08:33:57;;;;;;;12.47;11.07;;;15.70;93.60;;;;;;4990414;23;20743;-85
2021/08/26 08:36:22;;;;;;;12.83;11.63;;;15.80;94.60;;;;;;4987961;28;20200;-85
2021/08/26 08:38:48;;;;;;;11.87;10.70;;;15.80;93.60;;;;;;4992640;28;20287;-85
2021/08/26 08:41:19;;;;;;;12.27;11.17;;;15.90;93.40;;;;;;4996537;28;20199;-86
2021/08/26 08:43:45;;;;;;;12.47;11.23;;;15.80;93.90;;;;;;4994531;28;20222;-85
2021/08/26 08:46:10;;;;;;;11.63;10.53;;;15.80;93.60;;;;;;4994875;28;20346;-85
2021/08/26 08:48:41;;;;;;;11.17;10.13;;;15.70;94.30;;;;;;4993633;28;20575;-85
2021/08/26 08:51:11;;;;;;;11.30;10.10;;;15.70;93.60;;;;;;4993709;28;20222;-86
2021/08/26 08:53:38;;;;;;;11.57;10.50;;;15.70;94.80;;;;;;4993465;28;20213;-86
2021/08/26 08:56:06;;;;;;;11.80;10.50;;;15.60;96.10;;;;;;4990196;28;20215;-86
2021/08/26 08:58:39;;;;;;;11.27;10.27;;;15.70;95.10;;;;;;4996988;28;20200;-86
2021/08/26 09:01:05;;;;;;;10.20;9.20;;;15.80;94.40;;;;;;4998872;28;20245;-86
2021/08/26 09:03:35;;;;;;;11.57;10.57;;;15.80;94.30;;;;;;5004059;28;20225;-86
2021/08/26 09:06:02;;;;;;;10.43;9.50;;;15.90;95.20;;;;;;5009953;28;20186;-86
2021/08/26 09:08:29;;;;;;;10.23;9.20;;;16.00;93.70;;;;;;5004488;28;20294;-86
2021/08/26 09:11:08;;;;;;;9.97;9.07;;;16.00;93.60;;;;;;5001678;28;20207;-86
2021/08/26 09:13:34;;;;;;;10.23;9.17;;;15.90;94.20;;;;;;4999413;28;20216;-86
2021/08/26 09:16:01;;;;;;;10.83;9.83;;;15.80;95.10;;;;;;4996836;28;20190;-86
2021/08/26 09:18:27;;;;;;;10.17;9.27;;;15.90;95.10;;;;;;4998557;28;20182;-86
2021/08/26 09:21:00;;;;;;;10.90;9.90;;;16.00;93.20;;;;;;4999946;28;20280;-86
2021/08/26 09:23:29;;;;;;;10.87;9.87;;;16.00;92.80;;;;;;4998381;28;20220;-85
2021/08/26 09:26:15;;;;;;;10.37;9.33;;;16.10;93.00;;;;;;4997929;28;20290;-85
2021/08/26 09:28:40;;;;;;;9.10;8.17;;;16.20;93.60;;;;;;4999836;28;20183;-85
2021/08/26 09:31:18;;;;;;;9.80;8.87;;;16.30;92.30;;;;;;5000510;28;20213;-86
2021/08/26 09:33:57;;;;;;;9.33;8.43;;;16.40;91.30;;;;;;4979561;28;20250;-85
2021/08/26 09:36:29;;;;;;;8.47;7.67;;;16.60;91.10;;;;;;4990498;28;20669;-86
2021/08/26 09:39:16;;;;;;;8.93;8.13;;;16.60;89.90;;;;;;5002137;28;20198;-85
2021/08/26 09:42:01;;;;;;;9.20;8.40;;;16.80;90.20;;;;;;4993171;28;20190;-85
2021/08/26 09:44:35;;;;;;;7.40;6.80;;;16.70;89.70;;;;;;4996839;28;20241;-85
2021/08/26 09:47:10;;;;;;;9.23;8.43;;;16.40;90.10;;;;;;4992312;28;20183;-86
2021/08/26 09:49:40;;;;;;;7.67;7.07;;;16.30;91.70;;;;;;4991269;28;20229;-86
2021/08/26 09:52:10;;;;;;;8.00;7.40;;;16.20;92.20;;;;;;4991734;28;20209;-85
2021/08/26 09:54:42;;;;;;;6.87;6.37;;;16.40;92.40;;;;;;4996815;28;20226;-86
2021/08/26 09:57:23;;;;;;;6.40;5.80;;;16.50;91.30;;;;;;4996352;28;20197;-86
2021/08/26 09:59:55;;;;;;;7.20;6.50;;;16.60;90.30;;;;;;4981572;28;20648;-86
2021/08/26 10:02:23;;;;;;;6.93;6.17;;;16.50;91.10;;;;;;5005987;28;20539;-86
2021/08/26 10:04:49;;;;;;;7.33;6.63;;;16.60;91.70;;;;;;4990888;28;20683;-86
2021/08/26 10:07:17;;;;;;;7.50;6.90;;;16.40;91.80;;;;;;5002756;28;20246;-85
2021/08/26 10:09:44;;;;;;;8.10;7.47;;;16.00;94.10;;;;;;5012674;28;20189;-86
2021/08/26 10:12:12;;;;;;;8.47;7.80;;;15.80;96.20;;;;;;5013041;28;20200;-86
2021/08/26 10:14:49;;;;;;;8.97;8.07;;;15.70;98.50;;;;;;4995665;28;20221;-86
2021/08/26 10:17:16;;;;;;;8.43;7.73;;;16.00;97.20;;;;;;5026108;28;20196;-85
2021/08/26 10:19:42;;;;;;;8.13;7.43;;;16.00;96.40;;;;;;5002239;28;20191;-86
2021/08/26 10:22:09;;;;;;;8.07;7.37;;;16.10;97.20;;;;;;4988512;28;20229;-86
2021/08/26 10:24:35;;;;;;;8.50;7.70;;;16.00;96.80;;;;;;4995603;28;20700;-87
2021/08/26 10:27:13;;;;;;;8.53;7.77;;;15.80;97.60;;;;;;4987935;28;20216;-86
2021/08/26 10:29:47;;;;;;;9.20;8.50;;;15.90;97.00;;;;;;4991125;28;20209;-86
2021/08/26 10:32:17;;;;;;;9.03;8.27;;;16.00;98.30;;;;;;4990902;28;20671;-85
2021/08/26 10:35:02;;;;;;;9.83;9.03;;;16.10;98.10;;;;;;4993692;28;20218;-86
2021/08/26 10:37:28;;;;;;;9.80;8.90;;;16.10;98.50;;;;;;4981286;28;20187;-86
2021/08/26 10:39:53;;;;;;;9.57;8.73;;;16.10;97.80;;;;;;4990995;28;20198;-87
2021/08/26 10:42:19;;;;;;;9.33;8.53;;;16.30;97.30;;;;;;4994115;28;20201;-86
2021/08/26 10:45:06;;;;;;;9.30;8.50;;;16.20;97.40;;;;;;4985552;28;20207;-86
2021/08/26 10:47:50;;;;;;;8.83;8.03;;;16.30;95.90;;;;;;4990806;28;20195;-85
2021/08/26 10:50:19;;;;;;;8.97;8.17;;;16.20;96.60;;;;;;4987213;28;20294;-86
2021/08/26 10:53:26;;;;;;;8.87;8.13;;;16.20;96.70;;;;;;4983520;28;20194;-86
2021/08/26 10:55:54;;;;;;;8.63;7.93;;;16.20;97.60;;;;;;4982838;28;20712;-86
2021/08/26 10:58:22;;;;;;;8.53;7.90;;;16.30;97.10;;;;;;4997599;28;20193;-85
2021/08/26 11:00:49;;;;;;;8.63;7.83;;;16.40;95.50;;;;;;4995731;28;20692;-86
2021/08/26 11:03:33;;;;;;;8.20;7.50;;;16.70;95.80;;;;;;4989707;28;20221;-86
2021/08/26 11:06:18;;;;;;;8.00;7.37;;;16.90;93.30;;;;;;4996325;28;20188;-87
2021/08/26 11:08:55;;;;;;;8.33;7.67;;;17.00;92.60;;;;;;4993196;28;20197;-86
2021/08/26 11:11:24;;;;;;;8.97;8.17;;;17.10;94.10;;;;;;4989576;28;20220;-86
2021/08/26 11:13:51;;;;;;;7.77;7.07;;;16.90;92.60;;;;;;4994116;28;20258;-86
2021/08/26 11:16:25;;;;;;;8.53;7.73;;;17.00;92.30;;;;;;4981932;28;20221;-86
2021/08/26 11:18:58;;;;;;;8.87;8.17;;;17.10;92.30;;;;;;4993545;28;20196;-87
2021/08/26 11:21:49;;;;;;;8.37;7.67;;;17.20;94.00;;;;;;4994555;28;20610;-86
2021/08/26 11:24:15;;;;;;;7.27;6.67;;;17.40;92.00;;;;;;4994937;28;20688;-87
2021/08/26 11:26:46;;;;;;;8.03;7.33;;;17.40;88.00;;;;;;4994542;28;20182;-86
2021/08/26 11:29:17;;;;;;;7.17;6.57;;;17.80;90.40;;;;;;4984382;28;20198;-86
2021/08/26 11:31:55;;;;;;;7.83;6.93;;;18.00;86.90;;;;;;4987988;28;20221;-86
2021/08/26 11:34:28;;;;;;;7.50;6.87;;;18.30;84.40;;;;;;4990860;28;20256;-86
2021/08/26 11:36:57;;;;;;;7.27;6.67;;;18.70;85.30;;;;;;5007552;28;20183;-87
2021/08/26 11:39:22;;;;;;;6.93;6.43;;;18.60;84.60;;;;;;5005364;28;20669;-86
2021/08/26 11:41:48;;;;;;;6.73;6.17;;;18.40;85.60;;;;;;4992743;28;20206;-87
2021/08/26 11:44:15;;;;;;;7.83;7.03;;;18.60;83.50;;;;;;4989726;28;20305;-87
2021/08/26 11:46:41;;;;;;;6.87;6.27;;;18.60;84.80;;;;;;4992339;28;20205;-87
2021/08/26 11:49:07;;;;;;;7.93;7.23;;;18.50;82.90;;;;;;4992501;28;20201;-87
2021/08/26 11:51:32;;;;;;;7.13;6.40;;;18.60;86.10;;;;;;4992615;28;20717;-87
2021/08/26 11:54:20;;;;;;;7.70;6.97;;;18.50;82.60;;;;;;4990604;28;20251;-87
2021/08/26 11:56:52;;;;;;;7.63;6.90;;;18.60;83.90;;;;;;4989800;28;20680;-87
2021/08/26 11:59:36;;;;;;;7.10;6.40;;;18.60;83.30;;;;;;4986975;28;20205;-87
2021/08/26 12:02:22;;;;;;;6.22;5.60;;;19.10;82.00;;;;;;4993185;28;20207;-87
2021/08/26 12:04:52;;;;;;;7.13;6.43;;;19.30;79.50;;;;;;4994638;28;20283;-87
2021/08/26 12:07:45;;;;;;;6.43;5.82;;;19.60;77.80;;;;;;4992902;28;20193;-86
2021/08/26 12:10:30;;;;;;;6.32;5.78;;;19.70;78.10;;;;;;4989723;28;20232;-88
2021/08/26 12:12:55;;;;;;;9.45;5.40;;;19.80;78.70;;;;;;4982340;28;20214;-87
2021/08/26 12:15:25;;;;;;;5.95;5.40;;;20.40;77.00;;;;;;4993637;28;20660;-87
2021/08/26 12:17:56;;;;;;;6.05;5.45;;;20.80;77.70;;;;;;4984958;28;20301;-87
2021/08/26 12:20:23;;;;;;;5.70;5.20;;;20.80;71.70;;;;;;4981774;28;20191;-90
2021/08/26 12:22:49;;;;;;;5.78;5.10;;;20.30;73.40;;;;;;4977916;28;20185;-87
2021/08/26 12:25:20;;;;;;;6.30;5.70;;;20.20;72.90;;;;;;4993426;28;20228;-88
2021/08/26 12:27:51;;;;;;;5.85;5.35;;;19.80;74.20;;;;;;4986624;28;20199;-88
2021/08/26 12:30:36;;;;;;;5.82;5.18;;;19.70;76.50;;;;;;4979124;28;20244;-88
2021/08/26 12:33:17;;;;;;;5.75;5.25;;;19.60;73.80;;;;;;4990767;28;20446;-88
2021/08/26 12:35:54;;;;;;;5.75;5.10;;;20.20;73.80;;;;;;4986161;28;20259;-88
2021/08/26 12:38:39;;;;;;;5.85;5.35;;;20.60;70.50;;;;;;4987351;28;20185;-90
2021/08/26 12:41:05;;;;;;;7.75;4.55;;;21.20;68.00;;;;;;4988717;28;20194;-88
2021/08/26 12:43:51;;;;;;;5.15;4.75;;;21.30;67.50;;;;;;4995758;28;20217;-88
2021/08/26 12:46:20;;;;;;;5.60;5.10;;;21.50;65.50;;;;;;4988558;28;20216;-88
2021/08/26 12:48:48;;;;;;;6.30;5.80;;;21.40;68.70;;;;;;4991419;28;20258;-88
2021/08/26 12:51:24;;;;;;;5.55;5.10;;;21.00;70.40;;;;;;4988445;28;20678;-88